createdAt,value
2023-05-16T00:00:35.138Z,13.75
2023-05-16T00:03:22.733Z,15.30
2023-05-16T00:05:50.772Z,12.48
2023-05-16T00:08:18.753Z,13.68
2023-05-16T00:10:46.306Z,12.93
2023-05-16T00:13:13.768Z,13.15
2023-05-16T00:15:41.747Z,13.27
2023-05-16T00:18:10.009Z,13.55
2023-05-16T00:20:37.680Z,13.82
2023-05-16T00:23:04.981Z,14.95
2023-05-16T00:25:32.421Z,13.13
2023-05-16T00:27:59.617Z,17.05
2023-05-16T00:30:27.399Z,13.18
2023-05-16T00:32:55.950Z,13.40
2023-05-16T00:35:24.667Z,14.38
2023-05-16T00:37:51.963Z,15.88
2023-05-16T00:40:19.572Z,15.65
2023-05-16T00:42:46.951Z,17.48
2023-05-16T00:45:14.439Z,17.88
2023-05-16T00:47:41.803Z,17.40
2023-05-16T00:50:10.097Z,20.58
2023-05-16T00:52:37.884Z,15.98
2023-05-16T00:55:06.158Z,16.95
2023-05-16T00:57:34.965Z,14.98
2023-05-16T01:00:07.037Z,15.23
2023-05-16T01:02:37.611Z,17.33
2023-05-16T01:05:05.627Z,17.45
2023-05-16T01:07:32.824Z,15.90
2023-05-16T01:10:00.761Z,22.08
2023-05-16T01:12:43.541Z,15.05
2023-05-16T01:15:45.474Z,13.95
2023-05-16T01:18:43.402Z,13.63
2023-05-16T01:21:17.164Z,15.50
2023-05-16T01:23:56.985Z,14.15
2023-05-16T01:26:28.444Z,14.82
2023-05-16T01:28:56.095Z,12.63
2023-05-16T01:31:24.237Z,12.88
2023-05-16T01:33:52.105Z,16.58
2023-05-16T01:36:22.758Z,14.93
2023-05-16T01:38:59.801Z,21.10
2023-05-16T01:41:46.148Z,16.58
2023-05-16T01:44:37.563Z,20.23
2023-05-16T01:47:10.223Z,22.73
2023-05-16T01:49:51.261Z,16.23
2023-05-16T01:52:45.306Z,16.25
2023-05-16T01:55:23.672Z,17.30
2023-05-16T01:57:53.095Z,22.63
2023-05-16T02:00:21.608Z,17.50
2023-05-16T02:02:49.132Z,18.40
2023-05-16T02:05:17.616Z,18.15
2023-05-16T02:07:45.650Z,19.00
2023-05-16T02:10:13.882Z,19.77
2023-05-16T02:12:41.646Z,19.35
2023-05-16T02:15:10.208Z,19.70
2023-05-16T02:17:37.968Z,18.83
2023-05-16T02:20:07.315Z,20.75
2023-05-16T02:22:35.125Z,18.85
2023-05-16T02:25:03.357Z,20.27
2023-05-16T02:27:31.084Z,20.45
2023-05-16T02:29:58.930Z,18.17
2023-05-16T02:32:26.811Z,20.85
2023-05-16T02:34:54.124Z,19.33
2023-05-16T02:37:24.350Z,20.42
2023-05-16T02:39:51.569Z,21.52
2023-05-16T02:42:19.108Z,19.63
2023-05-16T02:44:46.563Z,20.50
2023-05-16T02:47:14.342Z,20.67
2023-05-16T02:49:41.680Z,21.23
2023-05-16T02:52:09.601Z,21.52
2023-05-16T02:54:36.876Z,23.15
2023-05-16T02:57:05.268Z,21.08
2023-05-16T02:59:32.564Z,20.90
2023-05-16T03:02:00.480Z,22.67
2023-05-16T03:04:28.117Z,20.35
2023-05-16T03:06:56.341Z,20.13
2023-05-16T03:09:23.533Z,20.25
2023-05-16T03:11:51.540Z,20.05
2023-05-16T03:14:20.333Z,24.48
2023-05-16T03:16:48.369Z,21.35
2023-05-16T03:19:15.889Z,23.10
2023-05-16T03:21:43.398Z,21.50
2023-05-16T03:24:11.205Z,25.23
2023-05-16T03:26:38.742Z,21.90
2023-05-16T03:29:06.269Z,22.45
2023-05-16T03:31:33.879Z,21.60
2023-05-16T03:34:01.301Z,19.38
2023-05-16T03:36:28.847Z,27.25
2023-05-16T03:38:56.047Z,19.58
2023-05-16T03:41:23.482Z,20.85
2023-05-16T03:43:50.729Z,20.30
2023-05-16T03:46:19.074Z,25.50
2023-05-16T03:48:46.537Z,18.98
2023-05-16T03:51:14.077Z,19.13
2023-05-16T03:53:41.950Z,23.65
2023-05-16T03:56:09.783Z,19.58
2023-05-16T03:58:37.015Z,18.80
2023-05-16T04:01:04.783Z,24.80
2023-05-16T04:03:33.858Z,18.55
2023-05-16T04:06:01.594Z,21.50
2023-05-16T04:08:28.877Z,18.30
2023-05-16T04:10:56.393Z,17.58
2023-05-16T04:13:23.594Z,17.75
2023-05-16T04:15:51.169Z,18.25
2023-05-16T04:18:18.546Z,18.63
2023-05-16T04:20:47.620Z,17.67
2023-05-16T04:23:14.980Z,20.95
2023-05-16T04:25:42.974Z,17.60
2023-05-16T04:28:10.419Z,16.48
2023-05-16T04:30:38.537Z,17.40
2023-05-16T04:33:06.188Z,17.40
2023-05-16T04:35:33.853Z,17.13
2023-05-16T04:38:01.954Z,17.42
2023-05-16T04:40:29.541Z,16.58
2023-05-16T04:42:57.243Z,16.77
2023-05-16T04:45:24.922Z,22.00
2023-05-16T04:47:52.436Z,23.70
2023-05-16T04:50:19.943Z,21.20
2023-05-16T04:52:47.155Z,16.63
2023-05-16T04:55:14.908Z,17.38
2023-05-16T04:57:42.417Z,17.05
2023-05-16T05:00:12.073Z,17.95
2023-05-16T05:02:39.671Z,18.58
2023-05-16T05:05:08.616Z,17.10
2023-05-16T05:07:36.269Z,17.27
2023-05-16T05:10:03.920Z,15.63
2023-05-16T05:12:31.245Z,16.88
2023-05-16T05:14:58.690Z,16.80
2023-05-16T05:17:26.142Z,14.73
2023-05-16T05:19:53.689Z,24.25
2023-05-16T05:22:20.913Z,19.25
2023-05-16T05:24:48.489Z,15.23
2023-05-16T05:27:16.207Z,13.27
2023-05-16T05:29:43.744Z,17.27
2023-05-16T05:32:11.045Z,15.88
2023-05-16T05:34:38.569Z,13.45
2023-05-16T05:37:06.160Z,14.38
2023-05-16T05:39:33.813Z,14.63
2023-05-16T05:42:04.009Z,14.35
2023-05-16T05:44:31.669Z,15.85
2023-05-16T05:46:59.164Z,15.13
2023-05-16T05:49:30.027Z,19.70
2023-05-16T05:51:57.647Z,16.20
2023-05-16T05:54:25.523Z,15.52
2023-05-16T05:56:52.950Z,18.63
2023-05-16T05:59:20.412Z,19.73
2023-05-16T06:01:52.511Z,18.55
2023-05-16T06:04:21.057Z,23.70
2023-05-16T06:06:48.530Z,17.85
2023-05-16T06:09:16.088Z,19.83
2023-05-16T06:11:45.826Z,21.05
2023-05-16T06:14:15.647Z,19.45
2023-05-16T06:16:42.879Z,18.58
2023-05-16T06:19:12.537Z,15.75
2023-05-16T06:21:39.898Z,17.20
2023-05-16T06:24:07.488Z,17.35
2023-05-16T06:26:36.005Z,13.20
2023-05-16T06:29:03.694Z,16.67
2023-05-16T06:31:32.000Z,13.73
2023-05-16T06:33:59.480Z,13.07
2023-05-16T06:36:26.692Z,12.88
2023-05-16T06:38:55.625Z,15.13
2023-05-16T06:41:23.355Z,11.95
2023-05-16T06:43:51.673Z,13.43
2023-05-16T06:46:18.998Z,9.68
2023-05-16T06:48:46.710Z,10.60
2023-05-16T06:51:14.014Z,8.85
2023-05-16T06:53:41.564Z,8.95
2023-05-16T06:56:08.939Z,12.77
2023-05-16T06:58:37.016Z,8.95
2023-05-16T07:01:04.444Z,8.65
2023-05-16T07:03:34.385Z,8.25
2023-05-16T07:06:01.861Z,7.45
2023-05-16T07:08:29.535Z,8.50
2023-05-16T07:10:56.891Z,8.88
2023-05-16T07:13:24.511Z,7.15
2023-05-16T07:15:51.911Z,10.77
2023-05-16T07:18:19.517Z,9.70
2023-05-16T07:20:46.816Z,6.47
2023-05-16T07:23:14.442Z,8.00
2023-05-16T07:25:42.005Z,9.02
2023-05-16T07:28:10.885Z,9.50
2023-05-16T07:30:38.176Z,6.50
2023-05-16T07:33:05.983Z,10.68
2023-05-16T07:35:33.296Z,5.90
2023-05-16T07:38:00.986Z,4.57
2023-05-16T07:40:29.431Z,5.72
2023-05-16T07:42:57.223Z,3.85
2023-05-16T07:45:24.613Z,4.97
2023-05-16T07:47:52.359Z,7.20
2023-05-16T07:50:19.896Z,5.32
2023-05-16T07:52:47.484Z,3.92
2023-05-16T07:55:15.089Z,4.85
2023-05-16T07:57:43.728Z,3.95
2023-05-16T08:00:11.757Z,9.60
2023-05-16T08:02:43.114Z,2.65
2023-05-16T08:05:10.994Z,4.60
2023-05-16T08:07:38.545Z,3.90
2023-05-16T08:10:06.371Z,5.95
2023-05-16T08:12:34.027Z,3.47
2023-05-16T08:15:01.315Z,3.78
2023-05-16T08:17:29.297Z,3.95
2023-05-16T08:19:56.773Z,14.15
2023-05-16T08:22:24.433Z,2.58
2023-05-16T08:24:51.692Z,5.25
2023-05-16T08:27:19.233Z,3.58
2023-05-16T08:29:46.722Z,3.67
2023-05-16T08:32:14.389Z,5.68
2023-05-16T08:34:42.590Z,10.70
2023-05-16T08:37:11.058Z,6.18
2023-05-16T08:39:40.974Z,2.67
2023-05-16T08:42:08.681Z,3.33
2023-05-16T08:44:36.216Z,3.55
2023-05-16T08:47:13.088Z,2.63
2023-05-16T08:49:42.497Z,6.05
2023-05-16T08:52:11.801Z,2.67
2023-05-16T08:54:41.169Z,3.50
2023-05-16T08:57:09.706Z,5.63
2023-05-16T08:59:37.756Z,3.45
2023-05-16T09:02:05.952Z,6.05
2023-05-16T09:04:33.986Z,2.17
2023-05-16T09:07:01.574Z,2.50
2023-05-16T09:09:30.037Z,2.00
2023-05-16T09:12:00.253Z,1.92
2023-05-16T09:14:27.790Z,8.13
2023-05-16T09:17:12.202Z,1.42
2023-05-16T09:19:41.071Z,4.80
2023-05-16T09:22:15.647Z,2.33
2023-05-16T09:24:43.991Z,3.40
2023-05-16T09:27:15.984Z,1.85
2023-05-16T09:29:44.659Z,3.17
2023-05-16T09:32:16.589Z,5.05
2023-05-16T09:34:45.865Z,10.60
2023-05-16T09:37:13.500Z,1.30
2023-05-16T09:39:50.396Z,4.38
2023-05-16T09:42:20.056Z,1.67
2023-05-16T09:44:52.940Z,1.50
2023-05-16T09:47:22.548Z,2.25
2023-05-16T09:49:53.646Z,3.15
2023-05-16T09:52:21.477Z,2.03
2023-05-16T09:54:50.077Z,1.00
2023-05-16T09:57:24.145Z,2.10
2023-05-16T09:59:51.757Z,4.13
2023-05-16T10:02:20.216Z,1.05
2023-05-16T10:04:47.870Z,3.90
2023-05-16T10:07:17.257Z,2.90
2023-05-16T10:09:45.307Z,15.02
2023-05-16T10:12:15.472Z,2.92
2023-05-16T10:14:46.576Z,3.08
2023-05-16T10:17:15.994Z,2.73
2023-05-16T10:19:43.682Z,2.85
2023-05-16T10:22:13.661Z,2.45
2023-05-16T10:24:45.147Z,1.10
2023-05-16T10:27:13.735Z,4.20
2023-05-16T10:29:53.384Z,3.53
2023-05-16T10:32:25.758Z,2.58
2023-05-16T10:34:55.743Z,1.27
2023-05-16T10:37:24.726Z,6.90
2023-05-16T10:39:53.122Z,1.65
2023-05-16T10:42:21.382Z,2.45
2023-05-16T10:45:01.919Z,2.50
2023-05-16T10:47:34.274Z,4.40
2023-05-16T10:50:01.793Z,3.42
2023-05-16T10:52:35.579Z,4.00
2023-05-16T10:55:04.916Z,6.95
2023-05-16T10:57:33.761Z,0.80
2023-05-16T11:00:02.197Z,1.52
2023-05-16T11:02:33.854Z,3.05
2023-05-16T11:05:03.109Z,1.90
2023-05-16T11:07:34.442Z,3.88
2023-05-16T11:10:16.020Z,4.73
2023-05-16T11:12:46.303Z,1.95
2023-05-16T11:15:26.386Z,4.10
2023-05-16T11:18:17.827Z,1.75
2023-05-16T11:20:45.589Z,3.17
2023-05-16T11:23:18.901Z,4.55
2023-05-16T11:25:49.294Z,1.98
2023-05-16T11:28:19.580Z,5.18
2023-05-16T11:30:52.128Z,4.15
2023-05-16T11:33:19.845Z,11.95
2023-05-16T11:36:15.886Z,2.05
2023-05-16T11:38:44.581Z,1.67
2023-05-16T11:41:12.489Z,2.95
2023-05-16T11:43:45.228Z,1.60
2023-05-16T11:46:16.451Z,3.53
2023-05-16T11:48:46.442Z,1.08
2023-05-16T11:51:18.678Z,1.60
2023-05-16T11:53:49.819Z,2.05
2023-05-16T11:56:17.420Z,3.05
2023-05-16T11:58:45.745Z,3.28
2023-05-16T12:01:13.210Z,2.95
2023-05-16T12:03:41.453Z,2.95
2023-05-16T12:06:09.011Z,1.70
2023-05-16T12:08:36.783Z,4.18
2023-05-16T12:11:04.133Z,2.40
2023-05-16T12:13:31.903Z,4.20
2023-05-16T12:15:59.434Z,3.92
2023-05-16T12:18:27.136Z,3.05
2023-05-16T12:20:54.699Z,2.63
2023-05-16T12:23:22.441Z,3.80
2023-05-16T12:25:50.003Z,4.72
2023-05-16T12:28:17.803Z,3.90
2023-05-16T12:30:48.050Z,1.30
2023-05-16T12:33:17.427Z,5.70
2023-05-16T12:35:47.132Z,6.47
2023-05-16T12:38:17.520Z,2.05
2023-05-16T12:40:46.169Z,4.25
2023-05-16T12:43:20.163Z,3.08
2023-05-16T12:45:55.252Z,5.38
2023-05-16T12:48:24.428Z,4.60
2023-05-16T12:50:51.697Z,4.35
2023-05-16T12:53:19.683Z,5.78
2023-05-16T12:55:47.261Z,3.60
2023-05-16T12:58:14.979Z,1.17
2023-05-16T13:00:43.011Z,2.42
2023-05-16T13:03:10.794Z,1.40
2023-05-16T13:05:38.255Z,4.20
2023-05-16T13:08:06.255Z,3.25
2023-05-16T13:10:34.741Z,1.38
2023-05-16T13:13:02.665Z,3.55
2023-05-16T13:15:30.450Z,4.50
2023-05-16T13:17:58.351Z,4.00
2023-05-16T13:20:25.920Z,1.80
2023-05-16T13:22:53.612Z,1.65
2023-05-16T13:25:21.379Z,3.83
2023-05-16T13:27:49.667Z,2.25
2023-05-16T13:30:17.315Z,4.70
2023-05-16T13:32:44.957Z,3.53
2023-05-16T13:35:12.394Z,1.88
2023-05-16T13:37:41.540Z,4.90
2023-05-16T13:40:10.618Z,3.20
2023-05-16T13:42:38.771Z,2.92
2023-05-16T13:45:07.164Z,3.00
2023-05-16T13:47:35.130Z,4.97
2023-05-16T13:50:09.347Z,11.85
2023-05-16T13:52:38.425Z,8.68
2023-05-16T13:55:06.786Z,5.82
2023-05-16T13:57:34.806Z,3.03
2023-05-16T14:00:31.160Z,3.58
2023-05-16T14:02:53.122Z,4.38
2023-05-16T14:05:20.572Z,2.65
2023-05-16T14:07:48.721Z,1.63
2023-05-16T14:10:17.054Z,4.63
2023-05-16T14:12:44.924Z,2.80
2023-05-16T14:15:12.362Z,3.60
2023-05-16T14:17:40.072Z,1.40
2023-05-16T14:20:11.096Z,2.88
2023-05-16T14:22:38.681Z,1.83
2023-05-16T14:25:07.163Z,8.05
2023-05-16T14:27:34.720Z,3.25
2023-05-16T14:30:02.080Z,2.22
2023-05-16T14:32:31.756Z,3.50
2023-05-16T14:34:59.237Z,3.45
2023-05-16T14:37:27.711Z,2.97
2023-05-16T14:39:55.264Z,2.08
2023-05-16T14:42:22.886Z,1.35
2023-05-16T14:44:50.501Z,2.10
2023-05-16T14:47:18.305Z,1.90
2023-05-16T14:49:48.788Z,6.07
2023-05-16T14:52:19.521Z,2.85
2023-05-16T14:54:48.004Z,4.88
2023-05-16T14:57:15.931Z,3.15
2023-05-16T14:59:48.649Z,6.72
2023-05-16T15:02:16.873Z,2.65
2023-05-16T15:04:45.001Z,3.75
2023-05-16T15:07:13.332Z,2.60
2023-05-16T15:09:41.433Z,2.63
2023-05-16T15:12:10.028Z,5.55
2023-05-16T15:14:38.970Z,1.27
2023-05-16T15:17:09.104Z,4.22
2023-05-16T15:19:37.646Z,2.20
2023-05-16T15:22:08.036Z,4.38
2023-05-16T15:24:39.330Z,3.03
2023-05-16T15:27:10.817Z,8.45
2023-05-16T15:29:39.296Z,2.53
2023-05-16T15:32:12.259Z,1.85
2023-05-16T15:34:46.330Z,6.88
2023-05-16T15:37:25.008Z,4.50
2023-05-16T15:39:54.667Z,5.45
2023-05-16T15:42:22.909Z,5.57
2023-05-16T15:44:50.666Z,1.73
2023-05-16T15:47:20.917Z,3.03
2023-05-16T15:49:58.719Z,5.93
2023-05-16T15:52:29.494Z,1.75
2023-05-16T15:54:57.018Z,2.70
2023-05-16T15:57:28.160Z,2.15
2023-05-16T15:59:58.931Z,3.03
2023-05-16T16:02:26.861Z,7.57
2023-05-16T16:04:54.666Z,2.55
2023-05-16T16:07:23.059Z,2.38
2023-05-16T16:09:51.251Z,3.53
2023-05-16T16:12:19.392Z,2.50
2023-05-16T16:14:50.202Z,3.05
2023-05-16T16:17:18.385Z,2.78
2023-05-16T16:19:46.123Z,3.78
2023-05-16T16:22:14.404Z,6.65
2023-05-16T16:24:50.999Z,4.68
2023-05-16T16:27:22.254Z,2.45
2023-05-16T16:29:51.149Z,3.47
2023-05-16T16:32:19.141Z,7.40
2023-05-16T16:34:46.421Z,7.75
2023-05-16T16:37:14.192Z,2.55
2023-05-16T16:39:41.869Z,6.60
2023-05-16T16:42:09.555Z,6.35
2023-05-16T16:44:37.133Z,2.28
2023-05-16T16:47:04.922Z,2.67
2023-05-16T16:49:32.732Z,6.22
2023-05-16T16:52:00.917Z,8.02
2023-05-16T16:54:28.594Z,11.43
2023-05-16T16:56:56.579Z,7.15
2023-05-16T16:59:24.136Z,7.82
2023-05-16T17:01:51.991Z,4.68
2023-05-16T17:04:19.286Z,5.10
2023-05-16T17:06:48.661Z,5.30
2023-05-16T17:09:18.027Z,3.25
2023-05-16T17:11:46.871Z,6.18
2023-05-16T17:14:15.209Z,7.85
2023-05-16T17:16:43.076Z,5.97
2023-05-16T17:19:11.321Z,7.85
2023-05-16T17:21:40.740Z,5.43
2023-05-16T17:24:08.136Z,6.28
2023-05-16T17:26:36.246Z,4.05
2023-05-16T17:29:06.894Z,4.55
2023-05-16T17:31:34.852Z,6.10
2023-05-16T17:34:02.476Z,11.50
2023-05-16T17:36:31.125Z,10.48
2023-05-16T17:38:59.273Z,7.95
2023-05-16T17:41:27.054Z,7.53
2023-05-16T17:43:54.692Z,4.47
2023-05-16T17:46:22.254Z,4.95
2023-05-16T17:48:49.738Z,4.88
2023-05-16T17:51:17.656Z,7.88
2023-05-16T17:53:45.607Z,4.07
2023-05-16T17:56:14.051Z,7.47
2023-05-16T17:58:42.003Z,9.23
2023-05-16T18:01:10.320Z,8.02
2023-05-16T18:03:37.772Z,7.78
2023-05-16T18:06:07.164Z,12.68
2023-05-16T18:08:34.469Z,9.65
2023-05-16T18:11:02.352Z,15.80
2023-05-16T18:13:29.833Z,9.30
2023-05-16T18:15:57.445Z,11.65
2023-05-16T18:18:24.929Z,10.32
2023-05-16T18:20:52.642Z,4.22
2023-05-16T18:23:20.073Z,3.95
2023-05-16T18:25:47.907Z,10.63
2023-05-16T18:28:15.124Z,11.55
2023-05-16T18:30:42.771Z,9.93
2023-05-16T18:33:10.409Z,5.50
2023-05-16T18:35:37.989Z,4.15
2023-05-16T18:38:05.557Z,16.45
2023-05-16T18:40:33.267Z,12.23
2023-05-16T18:43:01.160Z,9.32
2023-05-16T18:45:30.201Z,4.93
2023-05-16T18:47:57.899Z,9.07
2023-05-16T18:50:26.316Z,8.60
2023-05-16T18:52:57.422Z,8.23
2023-05-16T18:55:26.342Z,8.07
2023-05-16T18:57:54.031Z,7.93
2023-05-16T19:00:27.138Z,6.47
2023-05-16T19:02:54.990Z,6.70
2023-05-16T19:05:23.256Z,7.97
2023-05-16T19:07:51.300Z,5.30
2023-05-16T19:10:19.621Z,6.70
2023-05-16T19:12:48.998Z,7.03
2023-05-16T19:15:17.053Z,6.28
2023-05-16T19:17:44.834Z,6.70
2023-05-16T19:20:12.689Z,6.40
2023-05-16T19:22:40.472Z,7.18
2023-05-16T19:25:08.855Z,7.50
2023-05-16T19:27:36.197Z,8.68
2023-05-16T19:30:04.236Z,12.07
2023-05-16T19:32:31.558Z,7.40
2023-05-16T19:34:59.381Z,10.68
2023-05-16T19:37:27.089Z,14.50
2023-05-16T19:39:55.298Z,11.20
2023-05-16T19:42:25.575Z,10.98
2023-05-16T19:44:53.168Z,13.55
2023-05-16T19:47:20.488Z,13.30
2023-05-16T19:49:48.363Z,18.13
2023-05-16T19:52:15.671Z,16.83
2023-05-16T19:54:43.681Z,20.13
2023-05-16T19:57:11.250Z,18.92
2023-05-16T19:59:38.892Z,17.95
2023-05-16T20:02:06.904Z,15.48
2023-05-16T20:04:34.810Z,17.27
2023-05-16T20:07:02.262Z,19.65
2023-05-16T20:09:30.131Z,27.13
2023-05-16T20:11:58.201Z,18.70
2023-05-16T20:14:26.127Z,18.77
2023-05-16T20:16:53.688Z,19.98
2023-05-16T20:19:21.578Z,21.08
2023-05-16T20:21:48.930Z,22.40
2023-05-16T20:24:17.691Z,23.70
2023-05-16T20:26:45.033Z,25.85
2023-05-16T20:29:12.811Z,25.42
2023-05-16T20:31:43.182Z,25.92
2023-05-16T20:34:13.959Z,26.55
2023-05-16T20:36:41.347Z,28.40
2023-05-16T20:39:09.165Z,32.50
2023-05-16T20:41:36.707Z,34.03
2023-05-16T20:44:04.508Z,35.28
2023-05-16T20:46:32.170Z,33.95
2023-05-16T20:48:59.850Z,32.40
2023-05-16T20:51:27.608Z,30.45
2023-05-16T20:53:58.008Z,29.98
2023-05-16T20:56:26.471Z,31.42
2023-05-16T20:58:54.178Z,32.38
2023-05-16T21:01:21.534Z,28.90
2023-05-16T21:03:49.232Z,32.50
2023-05-16T21:06:16.676Z,32.40
2023-05-16T21:08:44.436Z,32.60
2023-05-16T21:11:11.711Z,31.80
2023-05-16T21:13:39.314Z,33.10
2023-05-16T21:16:08.877Z,34.08
2023-05-16T21:18:36.627Z,32.78
2023-05-16T21:21:04.122Z,32.47
2023-05-16T21:23:31.953Z,32.00
2023-05-16T21:25:59.285Z,34.33
2023-05-16T21:28:26.965Z,34.33
2023-05-16T21:30:54.427Z,34.55
2023-05-16T21:33:22.368Z,34.78
2023-05-16T21:35:50.130Z,36.30
2023-05-16T21:38:17.702Z,39.33
2023-05-16T21:40:45.290Z,40.00
2023-05-16T21:43:13.188Z,45.05
2023-05-16T21:45:40.669Z,45.58
2023-05-16T21:48:08.868Z,48.40
2023-05-16T21:50:36.602Z,50.60
2023-05-16T21:53:04.537Z,51.22
2023-05-16T21:55:32.073Z,61.90
2023-05-16T21:57:59.808Z,66.28
2023-05-16T22:00:27.987Z,61.95
2023-05-16T22:02:55.708Z,73.30
2023-05-16T22:05:23.361Z,67.28
2023-05-16T22:07:50.889Z,72.38
2023-05-16T22:10:18.678Z,74.10
2023-05-16T22:12:46.211Z,83.85
2023-05-16T22:15:13.505Z,75.95
2023-05-16T22:17:41.943Z,92.40
2023-05-16T22:20:10.042Z,101.05
2023-05-16T22:22:37.820Z,103.53
2023-05-16T22:25:05.583Z,107.15
2023-05-16T22:27:33.062Z,98.72
2023-05-16T22:30:00.536Z,102.75
2023-05-16T22:32:28.803Z,114.30
2023-05-16T22:34:56.324Z,100.63
2023-05-16T22:37:24.592Z,95.82
2023-05-16T22:39:53.240Z,95.97
2023-05-16T22:42:20.944Z,99.43
2023-05-16T22:44:48.241Z,106.63
2023-05-16T22:47:15.843Z,94.70
2023-05-16T22:49:43.247Z,102.75
2023-05-16T22:52:10.782Z,101.80
2023-05-16T22:54:38.049Z,104.43
2023-05-16T22:57:05.840Z,115.20
2023-05-16T22:59:33.270Z,102.28
2023-05-16T23:02:01.058Z,107.50
2023-05-16T23:04:28.394Z,96.13
2023-05-16T23:06:56.054Z,103.47
2023-05-16T23:09:23.475Z,104.85
2023-05-16T23:11:51.302Z,105.47
2023-05-16T23:14:18.668Z,94.32
2023-05-16T23:16:46.137Z,105.10
2023-05-16T23:19:13.511Z,111.30
2023-05-16T23:21:41.299Z,110.93
2023-05-16T23:24:08.883Z,113.80
2023-05-16T23:26:36.563Z,110.93
2023-05-16T23:29:04.205Z,108.00
2023-05-16T23:31:31.752Z,102.25
2023-05-16T23:33:59.256Z,113.15
2023-05-16T23:36:26.895Z,102.03
2023-05-16T23:38:54.257Z,108.32
2023-05-16T23:41:21.771Z,112.88
2023-05-16T23:43:48.982Z,105.57
2023-05-16T23:46:16.634Z,109.75
2023-05-16T23:48:43.996Z,105.35
2023-05-16T23:51:11.533Z,110.78
2023-05-16T23:53:38.744Z,115.55
2023-05-16T23:56:06.505Z,106.55
2023-05-16T23:58:33.918Z,115.20
